Kaibab Indian Reservation, Arizona
Current Conditions -  °F | °C
As of 5:15 AM on Friday 28 Nov 2014 (Local Time) from KAZC Reporting Station
Clear Clear  
Wind Chill: 18°   Ceiling: Unl
Heat Index: 25°   Visibility: 10mi
Dew Point: 14°   Wind: 6mph
Humidity: 64%   Direction: 130°SE
Pressure: 30.23"   Gusts: NA
Location:  36.9484°N, 112.529°W
Report Text: KAZC 281215Z AUTO 13005KT 10SM CLR M04/M10 A3023 RMK AO2 T10411101
Loading
Personal Weather Stations






























Interactive Weather Map New forecast layout! Learn more

10-Day Weather Forecast

Advertisements
Track Severe Weather on mobile